Portada
METAR-TAF:

METAR-TAF

Aeropuertos :

Tanna, Vanuatu

latitud: 19-27-18S, longitud: 169-13-26E, altitud: 6 m

Observación

El informe se hizo hace 3 horas y 18 minutos, a las 09:00 UTC
Viento calma
Temperatura 24°C
Humedad 94%
Presión 1017 hPa
Visibilidad 10 km o más
Escasas nubes a una altura de 2500 ft

METAR: NVVW 020900Z 00000KT 9999 FEW025 24/23 Q1017

Hora: 23:18 (12:18 UTC)

Pronóstico

El informe se hizo hace 2 horas y 18 minutos, a las 10:00 UTC
Pronóstico válido del 02 a las 12 UTC al 03 a las 12 UTC
Viento 3 kt con dirección variable
Visibilidad 10 km o más
Cielo nuboso a una altura de 2000 ft
Probabilidad 40%
entre IN y TE UTC
Visibilidad: 9000 m
Cielo nuboso a una altura de 1800 ft
chaparrones de lluvia

TAF: NVVW 021000Z 0212/0312 VRB03KT 9999 BKN020 PROB40 INTER 0212/0218 9000 -SHRA BKN018

Observaciones y pronósticos meteorológicos de más de 4000 aeropuertos (mensajes METAR y TAF).

Los puntos amarillos y rojos representan las estaciones disponibles.

Ponga el ratón en el punto deseado para ver el nombre de la estación.

Haga clic para ver las observaciones y los pronósticos meteorológicos.

Para cambiar el mapa : haga clic en los botones verdes con una cruz de color negro para hacer un zoom, en el botón verde con un guión para alejar o en las flechas verdes para mapas adyacentes.


METAR-TAF: